createdAt,value
2018-08-06T00:02:06.714Z,63.50
2018-08-06T00:04:42.110Z,63.40
2018-08-06T00:07:17.461Z,63.40
2018-08-06T00:09:53.009Z,64.10
2018-08-06T00:12:28.683Z,64.30
2018-08-06T00:15:05.613Z,64.30
2018-08-06T00:17:41.423Z,64.50
2018-08-06T00:22:52.314Z,64.50
2018-08-06T00:25:27.592Z,64.80
2018-08-06T00:28:03.637Z,64.60
2018-08-06T00:30:39.089Z,64.60
2018-08-06T00:33:14.378Z,64.80
2018-08-06T00:38:24.707Z,64.60
2018-08-06T00:41:00.197Z,64.40
2018-08-06T00:43:35.787Z,65.20
2018-08-06T00:46:11.489Z,65.20
2018-08-06T00:48:46.833Z,65.00
2018-08-06T00:51:22.250Z,64.70
2018-08-06T00:53:58.158Z,65.00
2018-08-06T00:56:33.093Z,65.20
2018-08-06T00:59:08.481Z,65.60
2018-08-06T01:01:43.866Z,65.60
2018-08-06T01:04:19.417Z,65.90
2018-08-06T01:06:54.917Z,65.80
2018-08-06T01:09:29.666Z,65.90
2018-08-06T01:12:04.325Z,65.90
2018-08-06T01:14:39.115Z,66.00
2018-08-06T01:17:13.914Z,66.20
2018-08-06T01:19:49.360Z,66.40
2018-08-06T01:22:24.119Z,66.50
2018-08-06T01:24:59.133Z,66.90
2018-08-06T01:27:34.958Z,66.80
2018-08-06T01:30:11.659Z,66.50
2018-08-06T01:32:46.255Z,66.50
2018-08-06T01:35:21.164Z,66.50
2018-08-06T01:37:57.005Z,66.50
2018-08-06T01:40:31.870Z,66.70
2018-08-06T01:43:06.705Z,66.60
2018-08-06T01:45:41.737Z,67.10
2018-08-06T01:48:16.766Z,66.80
2018-08-06T01:50:51.484Z,67.10
2018-08-06T01:53:26.729Z,67.00
2018-08-06T01:56:01.453Z,66.70
2018-08-06T01:58:36.449Z,66.80
2018-08-06T02:01:11.426Z,66.90
2018-08-06T02:03:46.299Z,66.90
2018-08-06T02:06:21.346Z,66.80
2018-08-06T02:08:56.154Z,66.80
2018-08-06T02:11:30.976Z,66.90
2018-08-06T02:14:05.994Z,67.20
2018-08-06T02:16:41.129Z,66.90
2018-08-06T02:19:16.130Z,66.80
2018-08-06T02:21:50.831Z,66.80
2018-08-06T02:27:00.035Z,67.40
2018-08-06T02:29:35.077Z,67.80
2018-08-06T02:32:09.901Z,67.90
2018-08-06T02:34:44.846Z,68.20
2018-08-06T02:37:19.816Z,68.10
2018-08-06T02:39:54.531Z,68.20
2018-08-06T02:42:30.169Z,68.00
2018-08-06T02:45:06.255Z,68.10
2018-08-06T02:47:41.001Z,68.40
2018-08-06T02:50:16.086Z,68.20
2018-08-06T02:52:50.975Z,68.20
2018-08-06T02:58:00.521Z,68.30
2018-08-06T03:00:35.354Z,68.30
2018-08-06T03:03:10.445Z,68.50
2018-08-06T03:05:45.274Z,68.70
2018-08-06T03:08:20.127Z,68.60
2018-08-06T03:10:55.298Z,68.70
2018-08-06T03:13:30.551Z,69.20
2018-08-06T03:16:05.921Z,69.00
2018-08-06T03:18:40.869Z,69.20
2018-08-06T03:21:15.659Z,69.60
2018-08-06T03:23:50.431Z,69.50
2018-08-06T03:26:25.151Z,69.40
2018-08-06T03:29:00.722Z,69.40
2018-08-06T03:31:36.446Z,69.90
2018-08-06T03:34:11.232Z,69.90
2018-08-06T03:36:46.002Z,70.00
2018-08-06T03:39:21.248Z,70.10
2018-08-06T03:41:56.169Z,70.20
2018-08-06T03:44:30.967Z,70.50
2018-08-06T03:47:06.138Z,70.10
2018-08-06T03:49:40.980Z,70.20
2018-08-06T03:52:15.897Z,70.50
2018-08-06T03:54:50.741Z,70.60
2018-08-06T03:57:25.866Z,70.60
2018-08-06T04:00:00.519Z,71.10
2018-08-06T04:02:35.629Z,70.70
2018-08-06T04:05:12.506Z,70.40
2018-08-06T04:07:47.243Z,70.40
2018-08-06T04:10:22.114Z,70.60
2018-08-06T04:12:56.973Z,70.70
2018-08-06T04:15:31.868Z,70.70
2018-08-06T04:18:07.424Z,70.70
2018-08-06T04:20:42.310Z,70.70
2018-08-06T04:23:17.626Z,70.70
2018-08-06T04:25:52.881Z,70.70
2018-08-06T04:28:27.757Z,70.80
2018-08-06T04:31:02.549Z,70.90
2018-08-06T04:33:37.282Z,71.00
2018-08-06T04:36:12.209Z,71.00
2018-08-06T04:38:47.062Z,70.80
2018-08-06T04:41:22.166Z,70.40
2018-08-06T04:43:56.984Z,70.70
2018-08-06T04:46:31.826Z,69.90
2018-08-06T04:49:06.809Z,70.00
2018-08-06T04:51:42.337Z,69.50
2018-08-06T04:54:17.184Z,69.50
2018-08-06T04:56:51.944Z,70.00
2018-08-06T04:59:27.491Z,70.20
2018-08-06T05:02:02.918Z,70.30
2018-08-06T05:04:37.921Z,70.50
2018-08-06T05:07:12.981Z,70.60
2018-08-06T05:09:47.622Z,70.90
2018-08-06T05:12:22.420Z,70.60
2018-08-06T05:14:57.215Z,70.50
2018-08-06T05:17:32.131Z,70.20
2018-08-06T05:20:06.924Z,70.00
2018-08-06T05:22:41.723Z,69.50
2018-08-06T05:25:16.794Z,70.20
2018-08-06T05:27:51.476Z,69.10
2018-08-06T05:30:26.297Z,69.30
2018-08-06T05:33:01.098Z,69.40
2018-08-06T05:35:36.943Z,69.40
2018-08-06T05:38:11.757Z,69.00
2018-08-06T05:40:46.499Z,69.00
2018-08-06T05:43:21.333Z,68.60
2018-08-06T05:45:56.826Z,69.00
2018-08-06T05:48:34.534Z,68.20
2018-08-06T05:51:11.128Z,69.60
2018-08-06T05:53:46.464Z,69.90
2018-08-06T05:56:21.185Z,69.80
2018-08-06T05:58:56.366Z,69.00
2018-08-06T06:01:32.106Z,69.00
2018-08-06T06:04:07.523Z,68.30
2018-08-06T06:06:43.285Z,68.80
2018-08-06T06:09:18.722Z,66.80
2018-08-06T06:11:54.466Z,67.00
2018-08-06T06:14:29.806Z,66.90
2018-08-06T06:17:05.290Z,66.30
2018-08-06T06:22:15.929Z,65.30
2018-08-06T06:24:51.555Z,64.90
2018-08-06T06:27:27.071Z,64.80
2018-08-06T06:30:02.574Z,65.00
2018-08-06T06:32:38.330Z,64.80
2018-08-06T06:35:14.424Z,64.00
2018-08-06T06:37:50.257Z,64.80
2018-08-06T06:40:26.182Z,64.60
2018-08-06T06:43:02.445Z,64.10
2018-08-06T06:45:38.102Z,64.60
2018-08-06T06:48:13.542Z,65.00
2018-08-06T06:50:48.869Z,63.90
2018-08-06T06:55:59.963Z,63.60
2018-08-06T06:58:35.293Z,64.30
2018-08-06T07:01:10.750Z,63.50
2018-08-06T07:03:46.169Z,63.50
2018-08-06T07:06:21.616Z,63.30
2018-08-06T07:08:57.250Z,62.10
2018-08-06T07:11:32.994Z,62.50
2018-08-06T07:14:08.455Z,61.70
2018-08-06T07:16:44.097Z,61.10
2018-08-06T07:19:19.538Z,61.00
2018-08-06T07:21:54.882Z,61.00
2018-08-06T07:24:30.121Z,59.60
2018-08-06T07:27:05.462Z,59.80
2018-08-06T07:29:41.985Z,59.20
2018-08-06T07:32:17.669Z,59.20
2018-08-06T07:34:53.024Z,58.30
2018-08-06T07:37:28.294Z,58.40
2018-08-06T07:40:04.831Z,58.30
2018-08-06T07:42:40.861Z,58.90
2018-08-06T07:45:19.785Z,58.40
2018-08-06T07:47:55.015Z,58.10
2018-08-06T07:50:30.470Z,58.80
2018-08-06T07:53:06.273Z,57.90
2018-08-06T07:55:41.716Z,58.40
2018-08-06T07:58:17.147Z,57.80
2018-08-06T08:00:53.311Z,57.70
2018-08-06T08:03:28.586Z,57.10
2018-08-06T08:06:04.205Z,57.30
2018-08-06T08:08:39.834Z,57.10
2018-08-06T08:11:15.329Z,56.80
2018-08-06T08:13:50.752Z,56.40
2018-08-06T08:16:26.058Z,55.80
2018-08-06T08:19:01.441Z,55.60
2018-08-06T08:21:36.781Z,54.60
2018-08-06T08:24:12.467Z,55.60
2018-08-06T08:26:48.345Z,54.60
2018-08-06T08:29:23.738Z,55.20
2018-08-06T08:31:58.966Z,54.50
2018-08-06T08:34:34.669Z,54.20
2018-08-06T08:37:10.320Z,52.60
2018-08-06T08:39:46.061Z,54.00
2018-08-06T08:42:21.793Z,53.10
2018-08-06T08:44:57.249Z,53.00
2018-08-06T08:47:32.741Z,52.40
2018-08-06T08:50:10.534Z,52.90
2018-08-06T08:52:46.374Z,53.10
2018-08-06T08:55:22.490Z,52.40
2018-08-06T08:57:57.730Z,52.50
2018-08-06T09:00:33.506Z,52.10
2018-08-06T09:03:08.882Z,51.70
2018-08-06T09:05:44.392Z,52.60
2018-08-06T09:08:20.280Z,51.40
2018-08-06T09:10:55.702Z,51.50
2018-08-06T09:13:31.053Z,50.70
2018-08-06T09:16:06.884Z,50.20
2018-08-06T09:18:42.306Z,50.70
2018-08-06T09:21:18.167Z,50.10
2018-08-06T09:23:53.906Z,49.10
2018-08-06T09:26:29.247Z,49.10
2018-08-06T09:29:04.803Z,48.00
2018-08-06T09:31:39.976Z,46.70
2018-08-06T09:34:15.167Z,47.00
2018-08-06T09:36:51.375Z,47.10
2018-08-06T09:39:26.516Z,46.50
2018-08-06T09:42:02.754Z,46.00
2018-08-06T09:44:38.462Z,44.60
2018-08-06T09:47:13.419Z,44.30
2018-08-06T09:49:48.329Z,43.70
2018-08-06T09:52:23.490Z,42.90
2018-08-06T09:54:58.565Z,42.00
2018-08-06T09:57:33.779Z,41.70
2018-08-06T10:00:16.417Z,40.70
2018-08-06T10:02:52.465Z,40.10
2018-08-06T10:05:28.120Z,39.40
2018-08-06T10:08:04.107Z,38.40
2018-08-06T10:10:39.341Z,38.10
2018-08-06T10:13:15.074Z,35.80
2018-08-06T10:15:50.058Z,37.00
2018-08-06T10:18:25.636Z,35.60
2018-08-06T10:21:00.849Z,35.30
2018-08-06T10:23:36.009Z,34.30
2018-08-06T10:26:11.563Z,33.90
2018-08-06T10:28:47.119Z,33.80
2018-08-06T10:31:22.819Z,34.80
2018-08-06T10:33:58.146Z,32.50
2018-08-06T10:36:33.129Z,33.40
2018-08-06T10:41:43.931Z,33.10
2018-08-06T10:44:19.781Z,32.90
2018-08-06T10:46:54.947Z,32.70
2018-08-06T10:49:29.971Z,30.20
2018-08-06T10:54:39.966Z,31.70
2018-08-06T10:57:15.233Z,31.50
2018-08-06T10:59:50.598Z,30.40
2018-08-06T11:02:25.799Z,30.00
2018-08-06T11:05:01.189Z,29.20
2018-08-06T11:07:36.528Z,28.40
2018-08-06T11:10:13.699Z,29.20
2018-08-06T11:12:48.949Z,28.50
2018-08-06T11:15:25.315Z,28.10
2018-08-06T11:18:00.663Z,27.70
2018-08-06T11:20:35.817Z,28.40
2018-08-06T11:25:46.237Z,28.80
2018-08-06T11:28:21.193Z,27.80
2018-08-06T11:30:57.480Z,27.20
2018-08-06T11:33:32.482Z,27.20
2018-08-06T11:36:07.740Z,27.10
2018-08-06T11:38:42.852Z,28.20
2018-08-06T11:41:17.917Z,27.30
2018-08-06T11:43:53.104Z,27.60
2018-08-06T11:46:28.200Z,27.70
2018-08-06T11:49:03.616Z,27.00
2018-08-06T11:51:38.681Z,26.70
2018-08-06T11:54:13.898Z,28.00
2018-08-06T11:56:49.303Z,27.50
2018-08-06T11:59:24.472Z,28.00
2018-08-06T12:01:59.622Z,27.70
2018-08-06T12:04:34.987Z,27.50
2018-08-06T12:07:10.592Z,27.40
2018-08-06T12:09:45.794Z,26.80
2018-08-06T12:12:21.220Z,27.00
2018-08-06T12:14:56.336Z,26.60
2018-08-06T12:17:31.548Z,26.10
2018-08-06T12:20:10.679Z,26.60
2018-08-06T12:22:47.286Z,27.60
2018-08-06T12:25:22.682Z,27.20
2018-08-06T12:27:58.093Z,27.60
2018-08-06T12:30:33.644Z,27.40
2018-08-06T12:33:08.963Z,26.20
2018-08-06T12:35:43.992Z,26.10
2018-08-06T12:38:19.336Z,26.00
2018-08-06T12:40:54.450Z,26.40
2018-08-06T12:43:29.687Z,25.90
2018-08-06T12:46:04.816Z,25.90
2018-08-06T12:48:40.553Z,25.00
2018-08-06T12:51:15.725Z,25.20
2018-08-06T12:53:51.110Z,26.50
2018-08-06T12:56:26.245Z,27.60
2018-08-06T12:59:01.318Z,27.50
2018-08-06T13:01:36.367Z,27.00
2018-08-06T13:04:11.602Z,26.90
2018-08-06T13:06:47.115Z,28.40
2018-08-06T13:09:22.274Z,28.10
2018-08-06T13:11:57.464Z,28.30
2018-08-06T13:14:32.611Z,27.40
2018-08-06T13:17:08.227Z,27.20
2018-08-06T13:19:43.714Z,27.00
2018-08-06T13:22:18.787Z,26.00
2018-08-06T13:24:53.745Z,26.40
2018-08-06T13:27:29.669Z,25.90
2018-08-06T13:30:08.271Z,26.50
2018-08-06T13:32:44.002Z,25.90
2018-08-06T13:35:19.172Z,26.20
2018-08-06T13:37:54.292Z,25.80
2018-08-06T13:40:30.102Z,26.70
2018-08-06T13:43:05.955Z,27.20
2018-08-06T13:45:40.987Z,26.50
2018-08-06T13:48:16.382Z,26.50
2018-08-06T13:50:51.350Z,25.60
2018-08-06T13:53:27.580Z,26.40
2018-08-06T13:56:02.657Z,27.10
2018-08-06T13:58:38.558Z,24.70
2018-08-06T14:01:14.117Z,24.50
2018-08-06T14:03:49.458Z,24.20
2018-08-06T14:06:24.876Z,23.80
2018-08-06T14:08:59.938Z,24.20
2018-08-06T14:11:36.248Z,24.70
2018-08-06T14:14:11.424Z,25.90
2018-08-06T14:16:47.126Z,26.00
2018-08-06T14:19:22.615Z,27.30
2018-08-06T14:21:57.940Z,27.00
2018-08-06T14:24:33.106Z,27.60
2018-08-06T14:27:08.199Z,27.10
2018-08-06T14:29:43.114Z,26.10
2018-08-06T14:32:18.700Z,26.30
2018-08-06T14:34:54.433Z,25.80
2018-08-06T14:37:29.587Z,26.10
2018-08-06T14:40:06.747Z,25.80
2018-08-06T14:42:41.739Z,26.00
2018-08-06T14:45:16.882Z,26.30
2018-08-06T14:47:51.891Z,25.90
2018-08-06T14:50:26.974Z,26.30
2018-08-06T14:53:02.786Z,26.10
2018-08-06T14:55:38.229Z,25.30
2018-08-06T14:58:13.234Z,25.20
2018-08-06T15:00:48.279Z,25.90
2018-08-06T15:03:23.491Z,24.70
2018-08-06T15:05:58.724Z,24.10
2018-08-06T15:08:34.118Z,24.90
2018-08-06T15:11:09.305Z,26.10
2018-08-06T15:13:44.558Z,25.90
2018-08-06T15:16:20.082Z,26.20
2018-08-06T15:18:55.550Z,26.90
2018-08-06T15:21:30.599Z,26.70
2018-08-06T15:24:05.891Z,26.00
2018-08-06T15:26:40.949Z,25.80
2018-08-06T15:29:15.939Z,26.80
2018-08-06T15:31:51.704Z,26.50
2018-08-06T15:34:27.229Z,26.70
2018-08-06T15:37:02.377Z,27.40
2018-08-06T15:39:37.596Z,27.60
2018-08-06T15:42:12.527Z,27.50
2018-08-06T15:44:47.637Z,27.50
2018-08-06T15:47:23.505Z,27.60
2018-08-06T15:49:58.550Z,27.10
2018-08-06T15:52:33.658Z,27.70
2018-08-06T15:55:09.733Z,27.60
2018-08-06T15:57:44.753Z,28.70
2018-08-06T16:00:20.689Z,28.70
2018-08-06T16:02:56.157Z,28.40
2018-08-06T16:05:31.272Z,28.60
2018-08-06T16:08:06.750Z,28.80
2018-08-06T16:10:41.724Z,29.10
2018-08-06T16:13:16.874Z,29.60
2018-08-06T16:15:52.130Z,29.60
2018-08-06T16:18:27.353Z,29.70
2018-08-06T16:21:02.887Z,30.60
2018-08-06T16:23:37.989Z,30.50
2018-08-06T16:26:13.121Z,30.50
2018-08-06T16:28:48.317Z,30.50
2018-08-06T16:31:23.726Z,30.60
2018-08-06T16:33:59.487Z,31.60
2018-08-06T16:36:34.569Z,31.40
2018-08-06T16:39:13.307Z,32.00
2018-08-06T16:41:48.293Z,32.50
2018-08-06T16:44:23.500Z,31.90
2018-08-06T16:46:58.672Z,31.50
2018-08-06T16:49:34.031Z,30.90
2018-08-06T16:52:10.059Z,32.60
2018-08-06T16:54:46.125Z,34.60
2018-08-06T16:57:21.333Z,35.70
2018-08-06T16:59:57.222Z,34.00
2018-08-06T17:02:32.219Z,33.30
2018-08-06T17:05:10.014Z,34.30
2018-08-06T17:07:46.583Z,34.50
2018-08-06T17:10:22.307Z,33.70
2018-08-06T17:12:57.755Z,35.10
2018-08-06T17:15:32.891Z,31.90
2018-08-06T17:18:07.921Z,32.20
2018-08-06T17:20:43.422Z,33.30
2018-08-06T17:23:18.677Z,33.80
2018-08-06T17:25:53.885Z,33.80
2018-08-06T17:28:29.050Z,34.50
2018-08-06T17:31:04.424Z,34.70
2018-08-06T17:33:40.430Z,34.30
2018-08-06T17:36:15.429Z,35.80
2018-08-06T17:38:51.443Z,36.30
2018-08-06T17:41:26.542Z,36.00
2018-08-06T17:44:02.004Z,36.30
2018-08-06T17:46:37.371Z,36.10
2018-08-06T17:49:12.555Z,35.90
2018-08-06T17:51:48.490Z,36.20
2018-08-06T17:54:24.641Z,36.00
2018-08-06T17:56:59.878Z,35.90
2018-08-06T17:59:35.003Z,36.30
2018-08-06T18:02:10.843Z,36.60
2018-08-06T18:04:46.944Z,36.80
2018-08-06T18:07:21.923Z,37.30
2018-08-06T18:09:56.998Z,38.00
2018-08-06T18:12:32.613Z,36.80
2018-08-06T18:15:08.073Z,36.00
2018-08-06T18:17:44.043Z,35.90
2018-08-06T18:20:19.945Z,36.50
2018-08-06T18:25:30.330Z,37.00
2018-08-06T18:28:06.192Z,37.70
2018-08-06T18:30:42.330Z,38.00
2018-08-06T18:33:18.496Z,37.90
2018-08-06T18:35:54.169Z,37.40
2018-08-06T18:38:29.550Z,37.30
2018-08-06T18:41:05.879Z,37.40
2018-08-06T18:43:41.759Z,37.30
2018-08-06T18:46:17.379Z,37.90
2018-08-06T18:48:53.867Z,37.80
2018-08-06T18:51:29.765Z,38.10
2018-08-06T18:54:05.251Z,37.90
2018-08-06T18:56:40.551Z,38.10
2018-08-06T18:59:16.085Z,38.20
2018-08-06T19:01:51.982Z,37.70
2018-08-06T19:04:28.088Z,37.50
2018-08-06T19:07:04.679Z,39.80
2018-08-06T19:09:40.194Z,39.10
2018-08-06T19:12:21.146Z,40.50
2018-08-06T19:14:57.158Z,40.70
2018-08-06T19:17:33.547Z,38.90
2018-08-06T19:20:08.934Z,38.90
2018-08-06T19:22:45.338Z,38.40
2018-08-06T19:25:26.938Z,39.20
2018-08-06T19:28:02.401Z,39.10
2018-08-06T19:30:43.351Z,39.20
2018-08-06T19:33:19.218Z,39.40
2018-08-06T19:35:54.937Z,40.80
2018-08-06T19:38:30.613Z,44.30
2018-08-06T19:43:40.936Z,46.30
2018-08-06T19:46:16.786Z,46.90
2018-08-06T19:48:52.741Z,47.80
2018-08-06T19:51:28.402Z,48.20
2018-08-06T19:54:03.822Z,49.20
2018-08-06T19:56:39.466Z,50.00
2018-08-06T19:59:14.977Z,50.50
2018-08-06T20:01:50.865Z,50.00
2018-08-06T20:04:30.757Z,49.80
2018-08-06T20:07:06.886Z,50.00
2018-08-06T20:09:42.661Z,50.50
2018-08-06T20:12:18.286Z,50.50
2018-08-06T20:14:53.973Z,50.50
2018-08-06T20:17:30.820Z,49.70
2018-08-06T20:20:07.394Z,50.20
2018-08-06T20:25:19.408Z,50.30
2018-08-06T20:27:55.417Z,51.40
2018-08-06T20:30:31.424Z,51.30
2018-08-06T20:33:07.493Z,51.00
2018-08-06T20:35:43.203Z,50.80
2018-08-06T20:38:19.783Z,51.40
2018-08-06T20:43:30.418Z,52.40
2018-08-06T20:46:06.352Z,52.60
2018-08-06T20:48:42.073Z,52.50
2018-08-06T20:51:17.994Z,53.10
2018-08-06T20:53:54.136Z,52.80
2018-08-06T20:56:29.943Z,54.30
2018-08-06T20:59:06.699Z,54.40
2018-08-06T21:01:43.424Z,54.50
2018-08-06T21:04:19.096Z,54.70
2018-08-06T21:06:55.251Z,54.70
2018-08-06T21:12:06.364Z,54.60
2018-08-06T21:14:41.993Z,54.70
2018-08-06T21:17:17.537Z,54.50
2018-08-06T21:19:53.465Z,54.30
2018-08-06T21:22:28.797Z,54.50
2018-08-06T21:25:05.905Z,55.10
2018-08-06T21:27:42.515Z,55.70
2018-08-06T21:30:20.764Z,56.50
2018-08-06T21:32:57.511Z,56.40
2018-08-06T21:35:33.845Z,56.70
2018-08-06T21:38:09.492Z,56.80
2018-08-06T21:40:47.944Z,58.10
2018-08-06T21:43:23.811Z,58.30
2018-08-06T21:48:34.759Z,58.40
2018-08-06T21:51:10.593Z,58.20
2018-08-06T21:53:46.041Z,58.00
2018-08-06T21:56:21.991Z,58.40
2018-08-06T21:58:57.562Z,58.40
2018-08-06T22:01:33.006Z,57.60
2018-08-06T22:04:08.740Z,58.40
2018-08-06T22:06:44.358Z,56.90
2018-08-06T22:11:55.748Z,54.80
2018-08-06T22:14:31.009Z,55.20
2018-08-06T22:17:07.036Z,54.90
2018-08-06T22:19:42.549Z,56.50
2018-08-06T22:22:17.931Z,56.20
2018-08-06T22:24:53.919Z,56.10
2018-08-06T22:27:29.601Z,56.30
2018-08-06T22:32:41.563Z,56.10
2018-08-06T22:35:16.894Z,56.60
2018-08-06T22:37:52.727Z,56.70
2018-08-06T22:40:28.626Z,56.80
2018-08-06T22:45:39.972Z,57.40
2018-08-06T22:48:15.286Z,56.90
2018-08-06T22:50:57.484Z,57.10
2018-08-06T22:53:34.175Z,57.20
2018-08-06T22:56:11.304Z,57.50
2018-08-06T22:58:46.645Z,57.60
2018-08-06T23:01:23.308Z,57.40
2018-08-06T23:03:58.846Z,57.90
2018-08-06T23:06:34.410Z,58.00
2018-08-06T23:09:12.125Z,58.30
2018-08-06T23:11:47.884Z,57.90
2018-08-06T23:14:23.454Z,58.00
2018-08-06T23:16:58.868Z,57.90
2018-08-06T23:19:34.694Z,58.10
2018-08-06T23:24:45.098Z,58.00
2018-08-06T23:27:20.396Z,58.40
2018-08-06T23:29:55.947Z,58.50
2018-08-06T23:32:31.707Z,59.80
2018-08-06T23:35:08.431Z,59.30
2018-08-06T23:37:44.994Z,58.60
2018-08-06T23:40:20.469Z,59.20
2018-08-06T23:42:56.275Z,59.80
2018-08-06T23:48:07.570Z,60.00
2018-08-06T23:50:43.369Z,59.10
2018-08-06T23:53:19.429Z,59.70
2018-08-06T23:55:55.335Z,59.40
2018-08-06T23:58:31.342Z,60.20
